Time;durP1;ratioP1;P1;durP2;ratioP2;P2;SDS_P1;SDS_P2;PMS_P1;PMS_P2;Temp;Humidity;BMP_temperature;BMP_pressure;BME280_temperature;BME280_humidity;BME280_pressure;Samples;Min_cycle;Max_cycle;Signal;HPM_P1;HPM_P2
2023/07/09 00:02:24;;;;;;;10.25;6.85;;;;;;;23.45;71.77;101592.34;4998103;28;20723;-49
2023/07/09 00:04:50;;;;;;;11.85;7.53;;;;;;;23.38;71.91;101594.94;5000991;28;20034;-49
2023/07/09 00:07:27;;;;;;;13.77;7.50;;;;;;;23.37;71.80;101597.84;4997686;28;20061;-49
2023/07/09 00:09:53;;;;;;;11.25;7.38;;;;;;;23.27;73.14;101579.13;4997749;28;20037;-49
2023/07/09 00:12:19;;;;;;;10.65;7.05;;;;;;;23.31;73.35;101587.72;5000453;28;20505;-48
2023/07/09 00:14:44;;;;;;;10.88;6.93;;;;;;;23.26;73.89;101596.41;5002190;28;20030;-49
2023/07/09 00:17:12;;;;;;;11.20;7.25;;;;;;;23.20;74.64;101597.13;5001628;28;20093;-50
2023/07/09 00:19:38;;;;;;;14.07;7.57;;;;;;;23.21;74.51;101606.94;4997157;28;20148;-52
2023/07/09 00:22:12;;;;;;;13.40;7.03;;;;;;;23.13;75.24;101609.72;5000814;28;20038;-51
2023/07/09 00:24:38;;;;;;;10.23;7.38;;;;;;;23.12;74.46;101610.75;5001193;28;20032;-49
2023/07/09 00:27:08;;;;;;;11.00;7.40;;;;;;;23.08;75.16;101608.41;5004176;28;20105;-49
2023/07/09 00:29:33;;;;;;;12.00;7.60;;;;;;;23.07;75.09;101612.13;4995191;28;20031;-49
2023/07/09 00:31:58;;;;;;;12.30;7.88;;;;;;;23.04;75.41;101612.47;5001464;28;20376;-49
2023/07/09 00:34:24;;;;;;;12.43;7.55;;;;;;;22.98;75.53;101618.63;5001210;28;20065;-50
2023/07/09 00:36:51;;;;;;;11.20;7.60;;;;;;;22.98;75.61;101617.75;5000344;28;20100;-53
2023/07/09 00:39:18;;;;;;;12.63;7.97;;;;;;;22.98;76.04;101617.75;4994048;28;20034;-51
2023/07/09 00:41:46;;;;;;;11.70;7.78;;;;;;;22.92;76.23;101616.63;4999993;28;20065;-52
2023/07/09 00:44:29;;;;;;;16.27;7.75;;;;;;;22.92;75.57;101613.91;4999357;28;20085;-51
2023/07/09 00:47:03;;;;;;;14.02;8.20;;;;;;;22.87;76.44;101617.16;4996281;28;20403;-50
2023/07/09 00:49:46;;;;;;;12.90;8.27;;;;;;;22.86;75.55;101622.75;5000125;28;20035;-49
2023/07/09 00:52:24;;;;;;;14.63;8.57;;;;;;;22.81;76.09;101617.88;4993082;28;20031;-50
2023/07/09 00:54:51;;;;;;;12.73;8.40;;;;;;;22.75;75.01;101621.31;5002626;28;20036;-49
2023/07/09 00:57:21;;;;;;;11.98;8.50;;;;;;;22.70;76.65;101616.44;5001675;28;20265;-52
2023/07/09 00:59:57;;;;;;;15.00;8.88;;;;;;;22.69;76.66;101619.31;4995083;28;20061;-51
2023/07/09 01:02:23;;;;;;;13.77;8.98;;;;;;;22.65;77.17;101624.25;4998819;28;20030;-50
2023/07/09 01:04:57;;;;;;;15.20;9.00;;;;;;;22.62;76.75;101616.47;4996749;28;20360;-50
2023/07/09 01:07:23;;;;;;;12.90;8.77;;;;;;;22.61;76.32;101616.66;4996526;28;20038;-52
2023/07/09 01:09:48;;;;;;;13.35;8.63;;;;;;;22.57;77.88;101615.34;4995955;28;20053;-50
2023/07/09 01:12:14;;;;;;;11.95;8.30;;;;;;;22.56;77.63;101619.91;4999399;28;20034;-51
2023/07/09 01:14:40;;;;;;;14.50;8.13;;;;;;;22.52;78.88;101615.88;4996852;28;20321;-49
2023/07/09 01:17:07;;;;;;;12.88;8.38;;;;;;;22.53;79.19;101614.81;4999901;28;20026;-49
2023/07/09 01:19:44;;;;;;;13.43;8.30;;;;;;;22.49;78.64;101608.94;4995556;28;20392;-50
2023/07/09 01:22:16;;;;;;;14.02;8.02;;;;;;;22.45;79.17;101606.75;4997217;28;20026;-49
2023/07/09 01:25:01;;;;;;;12.48;8.43;;;;;;;22.47;78.68;101610.16;4997065;28;20030;-50
2023/07/09 01:27:33;;;;;;;11.35;8.52;;;;;;;22.42;79.53;101618.78;4998018;28;20030;-50
2023/07/09 01:29:59;;;;;;;13.30;8.80;;;;;;;22.38;79.88;101611.19;4997523;28;20034;-51
2023/07/09 01:32:25;;;;;;;12.55;8.30;;;;;;;22.30;80.91;101612.94;4993458;28;20042;-58
2023/07/09 01:34:54;;;;;;;16.27;8.10;;;;;;;22.28;80.76;101611.38;4988628;28;20058;-50
2023/07/09 01:37:23;;;;;;;14.13;8.52;;;;;;;22.27;80.95;101626.78;5001046;28;20033;-49
2023/07/09 01:39:50;;;;;;;11.35;8.10;;;;;;;22.24;80.94;101619.00;4997119;28;20053;-50
2023/07/09 01:42:17;;;;;;;14.30;8.85;;;;;;;22.21;81.06;101618.53;4998084;28;20116;-50
2023/07/09 01:44:45;;;;;;;16.90;8.65;;;;;;;22.20;81.07;101620.38;5004476;28;20169;-50
2023/07/09 01:47:11;;;;;;;11.98;9.10;;;;;;;22.17;81.25;101624.28;4998308;28;20484;-50
2023/07/09 01:49:39;;;;;;;12.38;8.80;;;;;;;22.13;80.30;101617.53;5005141;28;20026;-49
2023/07/09 01:52:08;;;;;;;12.85;8.60;;;;;;;22.14;81.38;101621.09;5004778;28;20479;-51
2023/07/09 01:54:37;;;;;;;14.88;9.23;;;;;;;22.10;79.76;101628.72;5001826;28;20028;-49
2023/07/09 01:57:19;;;;;;;13.23;8.68;;;;;;;22.15;79.64;101636.31;5016628;28;20127;-50
2023/07/09 01:59:45;;;;;;;12.52;8.63;;;;;;;22.07;81.56;101633.63;5003466;28;20022;-49
2023/07/09 02:02:18;;;;;;;12.25;8.80;;;;;;;22.08;82.05;101635.31;4998297;28;20390;-50
2023/07/09 02:04:44;;;;;;;15.25;8.98;;;;;;;22.06;81.46;101637.34;5003141;28;20034;-49
2023/07/09 02:07:09;;;;;;;12.10;9.23;;;;;;;22.08;81.11;101640.72;5004849;28;20498;-49
2023/07/09 02:09:35;;;;;;;14.68;8.75;;;;;;;22.05;80.22;101636.50;4999890;28;20054;-50
2023/07/09 02:12:02;;;;;;;14.27;9.05;;;;;;;22.02;81.45;101636.84;5004145;28;20526;-50
2023/07/09 02:14:28;;;;;;;14.98;8.75;;;;;;;21.97;81.71;101631.97;5005095;28;20014;-50
2023/07/09 02:16:53;;;;;;;13.45;9.23;;;;;;;22.05;81.90;101638.34;4998516;28;20129;-50
2023/07/09 02:19:18;;;;;;;12.93;8.98;;;;;;;21.97;83.22;101641.94;5000955;28;20030;-50
2023/07/09 02:21:44;;;;;;;13.00;8.60;;;;;;;21.95;83.47;101643.97;5000634;28;20515;-50
2023/07/09 02:24:09;;;;;;;14.35;8.82;;;;;;;21.96;83.35;101637.53;5003864;28;20041;-50
2023/07/09 02:26:34;;;;;;;11.27;8.97;;;;;;;21.92;83.73;101626.22;5004001;28;20030;-50
2023/07/09 02:29:00;;;;;;;12.55;8.93;;;;;;;21.87;83.76;101635.88;5000153;28;20313;-51
2023/07/09 02:31:27;;;;;;;14.65;8.45;;;;;;;21.87;83.14;101639.44;5001656;28;20026;-50
2023/07/09 02:33:53;;;;;;;12.52;9.23;;;;;;;21.83;82.29;101635.38;4998691;28;20055;-49
2023/07/09 02:36:18;;;;;;;12.95;8.38;;;;;;;21.84;83.15;101638.94;5001852;28;20731;-50
2023/07/09 02:38:43;;;;;;;12.65;8.90;;;;;;;21.82;84.03;101636.41;5001737;28;20089;-50
2023/07/09 02:41:09;;;;;;;12.55;8.15;;;;;;;21.82;84.04;101633.69;5002792;28;20038;-50
2023/07/09 02:43:34;;;;;;;12.45;8.85;;;;;;;21.80;84.42;101644.69;5000519;28;20081;-49
2023/07/09 02:45:59;;;;;;;14.15;8.43;;;;;;;21.77;84.50;101641.47;5003782;28;20025;-50
2023/07/09 02:48:24;;;;;;;10.65;8.52;;;;;;;21.73;84.85;101638.28;5001114;28;20033;-48
2023/07/09 02:50:50;;;;;;;12.82;9.18;;;;;;;21.74;84.63;101631.84;5002425;28;20034;-49
2023/07/09 02:53:15;;;;;;;12.80;8.83;;;;;;;21.71;85.06;101634.06;5003531;28;20361;-50
2023/07/09 02:55:40;;;;;;;11.88;9.00;;;;;;;21.71;83.77;101643.00;5000692;28;20376;-49
2023/07/09 02:58:06;;;;;;;13.88;8.82;;;;;;;21.69;85.46;101645.03;5002069;28;20029;-49
2023/07/09 03:00:32;;;;;;;11.18;8.30;;;;;;;21.68;85.16;101640.63;5002929;28;20034;-49
2023/07/09 03:02:57;;;;;;;12.13;8.63;;;;;;;21.64;84.75;101636.59;4992288;28;20050;-50
2023/07/09 03:05:22;;;;;;;12.77;8.55;;;;;;;21.62;83.59;101634.06;4998078;28;20511;-50
2023/07/09 03:07:48;;;;;;;12.70;8.40;;;;;;;21.64;85.25;101630.34;4999783;28;20025;-50
2023/07/09 03:10:13;;;;;;;11.65;9.05;;;;;;;21.60;86.21;101636.09;5002346;28;20026;-50
2023/07/09 03:12:38;;;;;;;14.50;9.23;;;;;;;21.58;86.27;101630.03;5000154;28;20562;-49
2023/07/09 03:15:04;;;;;;;11.75;9.23;;;;;;;21.55;86.04;101633.06;5003475;28;20024;-49
2023/07/09 03:17:29;;;;;;;11.43;8.35;;;;;;;21.56;85.80;101634.72;5003374;28;20022;-49
2023/07/09 03:19:54;;;;;;;13.13;9.48;;;;;;;21.54;86.93;101636.78;5001204;28;20080;-48
2023/07/09 03:22:20;;;;;;;12.88;9.15;;;;;;;21.53;86.34;101636.94;5001526;28;20030;-50
2023/07/09 03:24:45;;;;;;;13.02;9.13;;;;;;;21.46;87.52;101634.03;5002480;28;20526;-50
2023/07/09 03:27:10;;;;;;;13.32;9.00;;;;;;;21.49;86.56;101627.50;5002950;28;20383;-50
2023/07/09 03:29:36;;;;;;;12.40;9.13;;;;;;;21.46;87.10;101638.63;4997797;28;20029;-53
2023/07/09 03:32:01;;;;;;;14.70;9.88;;;;;;;21.47;86.82;101640.28;4998318;28;20300;-49
2023/07/09 03:34:26;;;;;;;12.63;8.93;;;;;;;21.39;87.81;101633.88;5003115;28;20038;-51
2023/07/09 03:36:52;;;;;;;13.38;9.60;;;;;;;21.39;88.02;101641.16;4996837;28;20034;-51
2023/07/09 03:39:17;;;;;;;14.95;9.00;;;;;;;21.41;87.67;101631.00;5000133;28;20026;-49
2023/07/09 03:41:42;;;;;;;11.70;9.18;;;;;;;21.36;87.33;101626.09;4998598;28;20498;-49
2023/07/09 03:44:08;;;;;;;12.73;9.90;;;;;;;21.37;87.65;101624.28;5000068;28;20456;-49
2023/07/09 03:46:33;;;;;;;13.68;10.05;;;;;;;21.36;87.72;101628.81;4997885;28;20053;-49
2023/07/09 03:48:59;;;;;;;15.80;10.02;;;;;;;21.32;88.40;101632.88;4999508;28;20101;-50
2023/07/09 03:51:24;;;;;;;12.95;9.45;;;;;;;21.32;87.83;101635.59;4998903;28;20065;-49
2023/07/09 03:53:50;;;;;;;15.85;10.10;;;;;;;21.28;88.40;101630.69;5001456;28;20057;-49
2023/07/09 03:56:15;;;;;;;12.30;9.20;;;;;;;21.28;88.29;101636.06;5002038;28;20438;-49
2023/07/09 03:58:40;;;;;;;13.97;9.13;;;;;;;21.25;89.11;101635.41;5000239;28;20143;-49
2023/07/09 04:01:06;;;;;;;16.08;9.55;;;;;;;21.24;89.02;101638.28;5000386;28;20297;-49
2023/07/09 04:03:31;;;;;;;16.00;10.68;;;;;;;21.24;88.81;101633.72;5001829;28;20027;-49
2023/07/09 04:05:56;;;;;;;13.70;9.77;;;;;;;21.23;88.87;101634.75;4999079;28;20057;-50
2023/07/09 04:08:22;;;;;;;13.10;9.32;;;;;;;21.25;89.32;101632.72;4999187;28;20034;-50
2023/07/09 04:10:47;;;;;;;12.55;9.18;;;;;;;21.25;89.03;101629.16;5003383;28;20037;-52
2023/07/09 04:13:13;;;;;;;13.75;10.38;;;;;;;21.24;89.29;101631.00;4995410;28;20038;-51
2023/07/09 04:15:38;;;;;;;13.07;9.70;;;;;;;21.24;90.11;101632.88;5003876;28;20030;-49
2023/07/09 04:18:03;;;;;;;11.93;9.95;;;;;;;21.26;89.82;101642.47;5001852;28;20014;-53
2023/07/09 04:20:29;;;;;;;12.63;10.13;;;;;;;21.25;90.50;101629.16;4997409;28;20042;-54
2023/07/09 04:22:54;;;;;;;12.27;9.68;;;;;;;21.27;90.27;101635.25;4999391;28;20498;-52
2023/07/09 04:25:19;;;;;;;13.05;9.90;;;;;;;21.30;90.71;101634.03;5003442;28;20454;-50
2023/07/09 04:27:45;;;;;;;15.07;10.07;;;;;;;21.30;90.96;101634.91;5000558;28;20026;-54
2023/07/09 04:30:14;;;;;;;13.20;10.40;;;;;;;21.32;91.17;101637.44;5000271;28;20084;-51
2023/07/09 04:32:39;;;;;;;;;;;;;;;21.45;86.81;101643.19;5003143;28;20026;-51
2023/07/09 04:35:08;;;;;;;17.10;10.20;;;;;;;21.41;90.25;101637.25;5002070;28;19924;-51
2023/07/09 04:37:34;;;;;;;;;;;;;;;21.49;86.18;101630.19;5000839;28;20045;-51
2023/07/09 04:39:59;;;;;;;18.58;11.93;;;;;;;21.48;87.73;101633.91;5003891;28;19909;-52
2023/07/09 04:42:25;;;;;;;18.95;11.02;;;;;;;21.52;89.16;101628.00;4997282;28;20019;-50
2023/07/09 04:44:50;;;;;;;15.55;12.10;;;;;;;21.57;88.86;101636.44;4999852;28;20023;-51
2023/07/09 04:47:15;;;;;;;16.33;11.80;;;;;;;21.62;88.76;101633.22;4999702;28;20514;-50
2023/07/09 04:49:41;;;;;;;15.90;10.95;;;;;;;21.67;88.28;101630.00;4999602;28;20285;-54
2023/07/09 04:52:10;;;;;;;15.90;11.77;;;;;;;21.75;87.75;101635.38;4995746;28;20120;-54
2023/07/09 04:54:36;;;;;;;15.32;11.35;;;;;;;21.83;89.30;101631.81;5000736;28;20032;-51
2023/07/09 04:57:03;;;;;;;21.30;11.57;;;;;;;21.88;88.51;101635.69;5000148;28;20495;-50
2023/07/09 04:59:28;;;;;;;13.70;10.60;;;;;;;21.96;87.19;101632.97;5001058;28;20030;-51
2023/07/09 05:01:54;;;;;;;15.55;10.32;;;;;;;22.06;86.00;101634.63;4998332;28;20088;-51
2023/07/09 05:04:19;;;;;;;18.60;10.98;;;;;;;22.15;86.00;101636.31;4998746;28;20033;-53
2023/07/09 05:06:44;;;;;;;16.83;10.98;;;;;;;22.24;85.44;101634.41;5000590;28;20032;-51
2023/07/09 05:09:10;;;;;;;16.10;11.55;;;;;;;22.36;84.41;101638.44;4998853;28;20117;-53
2023/07/09 05:11:36;;;;;;;14.67;10.17;;;;;;;22.43;84.00;101636.72;5000130;28;20105;-51
2023/07/09 05:14:02;;;;;;;13.73;9.68;;;;;;;22.53;84.36;101639.19;4999194;28;20285;-51
2023/07/09 05:16:28;;;;;;;12.82;9.55;;;;;;;22.64;82.15;101632.56;4999259;28;20030;-51
2023/07/09 05:18:53;;;;;;;12.02;8.82;;;;;;;22.75;80.74;101634.84;4998910;28;20037;-51
2023/07/09 05:21:19;;;;;;;12.20;9.23;;;;;;;22.83;80.67;101632.09;5007213;28;20019;-50
2023/07/09 05:23:44;;;;;;;13.48;9.13;;;;;;;22.92;80.34;101636.44;5003696;28;20073;-53
2023/07/09 05:26:10;;;;;;;16.00;9.07;;;;;;;22.98;79.35;101631.31;5000607;28;20034;-52
2023/07/09 05:28:36;;;;;;;9.48;8.45;;;;;;;23.09;79.58;101637.19;5003356;28;20365;-50
2023/07/09 05:31:01;;;;;;;14.05;8.43;;;;;;;23.18;78.75;101629.84;4999990;28;20032;-51
2023/07/09 05:33:27;;;;;;;17.88;9.23;;;;;;;23.32;77.85;101635.50;4998978;28;20365;-50
2023/07/09 05:35:52;;;;;;;12.23;8.52;;;;;;;23.43;77.18;101629.59;5000302;28;20022;-50
2023/07/09 05:38:17;;;;;;;14.75;9.88;;;;;;;23.57;77.28;101634.22;5001991;28;20026;-50
2023/07/09 05:40:43;;;;;;;13.85;9.18;;;;;;;23.73;75.38;101632.38;5001444;28;20019;-53
2023/07/09 05:43:10;;;;;;;12.13;8.48;;;;;;;23.88;74.99;101629.72;5007135;28;20109;-53
2023/07/09 05:45:35;;;;;;;11.30;8.27;;;;;;;24.03;75.24;101627.81;4998500;28;20475;-51
2023/07/09 05:48:01;;;;;;;13.05;8.88;;;;;;;24.18;75.30;101625.09;4997531;28;20032;-50
2023/07/09 05:50:28;;;;;;;13.88;8.48;;;;;;;24.37;73.05;101629.13;4999109;28;20094;-50
2023/07/09 05:52:54;;;;;;;14.00;8.63;;;;;;;24.54;71.65;101633.28;5002939;28;20053;-50
2023/07/09 05:55:19;;;;;;;15.32;8.68;;;;;;;24.73;71.16;101633.72;4998918;28;20137;-51
2023/07/09 05:57:44;;;;;;;15.23;8.48;;;;;;;24.88;70.62;101631.84;5004047;28;20117;-50
2023/07/09 06:00:10;;;;;;;12.20;8.70;;;;;;;25.07;69.88;101643.09;4998880;28;20113;-51
2023/07/09 06:02:36;;;;;;;13.93;8.57;;;;;;;25.24;70.23;101638.22;4998879;28;20113;-48
2023/07/09 06:05:01;;;;;;;12.32;8.25;;;;;;;25.42;68.29;101635.06;5005467;28;20118;-48
2023/07/09 06:07:27;;;;;;;17.15;8.00;;;;;;;25.57;67.85;101638.53;5004870;28;20490;-48
2023/07/09 06:09:53;;;;;;;12.35;8.45;;;;;;;25.71;67.45;101644.06;4997498;28;20395;-47
2023/07/09 06:12:19;;;;;;;11.77;8.15;;;;;;;25.88;66.17;101640.00;5002282;28;20022;-48
2023/07/09 06:14:45;;;;;;;10.18;7.82;;;;;;;26.08;65.66;101652.91;4985828;28;20499;-47
2023/07/09 06:17:10;;;;;;;12.23;7.72;;;;;;;26.24;67.09;101644.41;5001579;28;20387;-48
2023/07/09 06:19:36;;;;;;;14.98;8.35;;;;;;;26.43;64.43;101644.69;5000626;28;20042;-48
2023/07/09 06:22:01;;;;;;;11.98;7.82;;;;;;;26.63;63.75;101647.47;4996524;28;20030;-48
2023/07/09 06:24:26;;;;;;;13.95;7.55;;;;;;;26.74;62.83;101649.66;4997328;28;20056;-48
2023/07/09 06:26:51;;;;;;;12.10;7.67;;;;;;;26.97;63.78;101646.56;4997125;28;20480;-48
2023/07/09 06:29:17;;;;;;;10.35;7.47;;;;;;;27.11;63.12;101644.69;4999096;28;20292;-48
2023/07/09 06:31:42;;;;;;;13.23;7.60;;;;;;;27.30;61.31;101645.78;5001722;28;20030;-48
2023/07/09 06:34:09;;;;;;;13.73;7.68;;;;;;;27.51;59.94;101644.72;4999538;28;20310;-50
2023/07/09 06:36:34;;;;;;;13.63;7.72;;;;;;;27.73;60.93;101639.03;5001483;28;20058;-49
2023/07/09 06:39:00;;;;;;;13.27;7.47;;;;;;;27.88;58.65;101642.38;4999252;28;20081;-50
2023/07/09 06:41:25;;;;;;;9.95;6.78;;;;;;;28.03;60.61;101643.00;5000383;28;20023;-50
2023/07/09 06:43:50;;;;;;;9.53;6.87;;;;;;;28.18;56.92;101637.28;4998446;28;20423;-50
2023/07/09 06:46:19;;;;;;;12.77;7.38;;;;;;;28.42;56.13;101634.84;5003479;28;20285;-50
2023/07/09 06:48:44;;;;;;;17.35;7.60;;;;;;;28.65;57.82;101634.34;4995621;28;20102;-50
2023/07/09 06:51:09;;;;;;;11.85;7.00;;;;;;;28.79;55.21;101644.16;4996679;28;20034;-50
2023/07/09 06:53:36;;;;;;;10.70;6.47;;;;;;;29.03;55.19;101647.16;4995909;28;20049;-50
2023/07/09 06:56:01;;;;;;;11.27;6.95;;;;;;;29.21;52.38;101646.44;4995232;28;20075;-51
2023/07/09 06:58:28;;;;;;;11.02;6.70;;;;;;;29.29;51.60;101648.84;5000202;28;20415;-50
2023/07/09 07:00:55;;;;;;;10.05;6.28;;;;;;;29.50;50.99;101649.53;4998590;28;20510;-50
2023/07/09 07:03:23;;;;;;;13.75;7.13;;;;;;;29.67;50.55;101656.09;5000866;28;20165;-50
2023/07/09 07:05:49;;;;;;;13.17;7.17;;;;;;;29.95;50.71;101654.81;4994077;28;20050;-50
2023/07/09 07:08:17;;;;;;;11.35;6.63;;;;;;;30.10;48.88;101650.88;5000429;28;20116;-51
2023/07/09 07:10:43;;;;;;;14.85;7.43;;;;;;;30.34;50.47;101649.91;4996296;28;20352;-48
2023/07/09 07:13:08;;;;;;;13.95;7.05;;;;;;;30.55;48.73;101662.34;4998156;28;20049;-48
2023/07/09 07:15:37;;;;;;;12.00;7.20;;;;;;;30.68;47.60;101649.50;4997624;28;20105;-48
2023/07/09 07:18:03;;;;;;;;;;;;;;;30.95;50.98;101660.97;4998518;28;20041;-48
2023/07/09 07:20:29;;;;;;;8.50;6.15;;;;;;;31.04;45.54;101656.81;5001704;28;19920;-50
2023/07/09 07:22:54;;;;;;;11.73;6.38;;;;;;;31.25;45.72;101665.56;4995138;28;20026;-49
2023/07/09 07:25:20;;;;;;;11.20;5.70;;;;;;;31.38;47.67;101662.59;4998836;28;20395;-48
2023/07/09 07:27:45;;;;;;;7.97;5.65;;;;;;;31.52;44.91;101657.75;4997210;28;20049;-48
2023/07/09 07:30:11;;;;;;;15.73;5.78;;;;;;;31.51;42.79;101664.28;4996964;28;20053;-48
2023/07/09 07:32:38;;;;;;;10.55;4.97;;;;;;;31.64;42.49;101661.34;5018627;28;20022;-48
2023/07/09 07:35:04;;;;;;;10.90;5.53;;;;;;;31.69;42.49;101661.47;4992409;28;20053;-48
2023/07/09 07:37:29;;;;;;;10.15;5.78;;;;;;;31.80;42.47;101662.50;4992947;28;20034;-48
2023/07/09 07:39:54;;;;;;;7.43;5.57;;;;;;;31.88;43.66;101653.09;4998477;28;20110;-48
2023/07/09 07:42:20;;;;;;;8.03;5.33;;;;;;;32.16;43.50;101654.22;4993499;28;20049;-48
2023/07/09 07:44:45;;;;;;;9.77;5.70;;;;;;;32.27;42.70;101650.63;4990843;28;20328;-48
2023/07/09 07:47:11;;;;;;;10.02;5.55;;;;;;;32.49;43.16;101645.28;4995004;28;20641;-48
2023/07/09 07:49:37;;;;;;;7.95;5.30;;;;;;;32.78;40.67;101650.81;4992357;28;20038;-48
2023/07/09 07:52:03;;;;;;;11.75;5.47;;;;;;;32.92;40.48;101651.34;4997215;28;20030;-48
2023/07/09 07:54:30;;;;;;;9.63;5.65;;;;;;;32.96;39.43;101647.84;4992812;28;20446;-51
2023/07/09 07:56:55;;;;;;;8.13;5.22;;;;;;;32.96;39.07;101650.59;4996767;28;20558;-50
2023/07/09 07:59:20;;;;;;;8.43;5.22;;;;;;;33.07;39.13;101650.78;4993149;28;20038;-50
2023/07/09 08:01:46;;;;;;;11.38;5.38;;;;;;;33.15;39.60;101651.22;4997555;28;20056;-51
2023/07/09 08:04:11;;;;;;;7.80;4.83;;;;;;;33.36;39.38;101635.88;4997025;28;20105;-49
2023/07/09 08:06:36;;;;;;;11.07;6.03;;;;;;;33.59;39.97;101639.50;4996009;28;20363;-50
2023/07/09 08:09:02;;;;;;;9.63;5.73;;;;;;;33.70;38.41;101635.00;4994289;28;20655;-50
2023/07/09 08:11:29;;;;;;;6.63;5.50;;;;;;;33.81;38.24;101638.72;4996521;28;20285;-49
2023/07/09 08:13:55;;;;;;;7.87;5.03;;;;;;;34.04;38.14;101641.28;4999906;28;20113;-50
2023/07/09 08:16:20;;;;;;;7.85;5.20;;;;;;;34.08;37.56;101642.41;4994725;28;20109;-53
2023/07/09 08:18:46;;;;;;;6.82;4.75;;;;;;;34.23;37.55;101639.03;4994179;28;20026;-52
2023/07/09 08:21:11;;;;;;;10.75;5.57;;;;;;;34.42;36.72;101628.50;4991942;28;20057;-52
2023/07/09 08:23:36;;;;;;;10.95;5.22;;;;;;;34.47;36.27;101636.00;4999966;28;20034;-52
2023/07/09 08:26:03;;;;;;;7.93;5.30;;;;;;;34.66;37.63;101644.75;4998469;28;20432;-50
2023/07/09 08:28:32;;;;;;;7.88;4.97;;;;;;;34.68;37.51;101639.81;4997497;28;20054;-50
2023/07/09 08:30:57;;;;;;;8.57;5.43;;;;;;;34.88;37.47;101638.38;4999904;28;20494;-50
2023/07/09 08:33:23;;;;;;;8.65;5.32;;;;;;;35.12;35.68;101627.81;5014548;28;20153;-50
2023/07/09 08:35:50;;;;;;;12.30;6.15;;;;;;;35.17;37.31;101628.69;4999655;28;20022;-50
2023/07/09 08:38:15;;;;;;;8.25;5.35;;;;;;;35.47;35.57;101635.53;4988029;28;20041;-51
2023/07/09 08:40:49;;;;;;;9.30;5.43;;;;;;;35.54;35.02;101633.41;4997210;28;20034;-53
2023/07/09 08:43:31;;;;;;;7.60;4.78;;;;;;;35.68;35.28;101632.91;4999234;28;20092;-50
2023/07/09 08:46:04;;;;;;;11.98;5.45;;;;;;;35.94;35.97;101633.88;4996667;28;20133;-50
2023/07/09 08:48:33;;;;;;;6.65;5.18;;;;;;;35.97;34.23;101638.88;5000260;28;20034;-51
2023/07/09 08:51:04;;;;;;;6.35;5.32;;;;;;;36.04;33.56;101633.94;4995808;28;20117;-50
2023/07/09 08:53:44;;;;;;;7.80;5.40;;;;;;;36.22;34.71;101640.94;4995298;28;20038;-51
2023/07/09 08:56:10;;;;;;;6.70;5.22;;;;;;;36.26;33.49;101635.72;5000589;28;20030;-53
2023/07/09 08:58:37;;;;;;;8.18;5.40;;;;;;;36.44;33.13;101637.13;4996613;28;20228;-50
2023/07/09 09:01:06;;;;;;;8.55;5.00;;;;;;;36.64;35.22;101636.34;5001802;28;20034;-50
2023/07/09 09:03:43;;;;;;;7.35;4.82;;;;;;;36.89;34.80;101623.66;4999019;28;20109;-50
2023/07/09 09:06:29;;;;;;;7.72;4.90;;;;;;;37.46;33.14;101618.94;4996174;28;20053;-50
2023/07/09 09:09:03;;;;;;;8.50;5.25;;;;;;;37.67;32.58;101614.19;5000023;28;20369;-50
2023/07/09 09:11:56;;;;;;;7.35;5.10;;;;;;;37.54;32.35;101610.03;5002550;28;20368;-51
2023/07/09 09:14:27;;;;;;;9.52;4.93;;;;;;;37.53;30.58;101611.97;4998572;28;20193;-51
2023/07/09 09:16:53;;;;;;;7.50;5.10;;;;;;;37.57;31.49;101613.09;4999923;28;20029;-50
2023/07/09 09:19:37;;;;;;;8.27;4.90;;;;;;;37.79;33.11;101617.50;5000097;28;20022;-50
2023/07/09 09:22:08;;;;;;;8.52;5.13;;;;;;;37.71;31.23;101610.56;4996974;28;20037;-52
2023/07/09 09:24:49;;;;;;;7.13;4.70;;;;;;;37.91;31.39;101615.22;4997673;28;20133;-50
2023/07/09 09:27:15;;;;;;;7.53;5.32;;;;;;;38.15;31.19;101608.19;4994490;28;20034;-51
2023/07/09 09:29:40;;;;;;;8.27;4.87;;;;;;;38.35;30.33;101602.53;5002282;28;20041;-50
2023/07/09 09:32:24;;;;;;;7.27;4.87;;;;;;;38.57;31.64;101602.09;4995395;28;20306;-50
2023/07/09 09:34:49;;;;;;;8.82;4.80;;;;;;;38.69;29.38;101604.56;4993277;28;20333;-49
2023/07/09 09:37:26;;;;;;;10.40;4.97;;;;;;;38.53;30.62;101587.13;4996689;28;20038;-49
2023/07/09 09:39:51;;;;;;;7.03;4.47;;;;;;;38.52;29.98;101585.47;5000069;28;20615;-52
2023/07/09 09:42:16;;;;;;;5.43;4.67;;;;;;;38.05;30.22;101578.53;4996617;28;20037;-50
2023/07/09 09:44:46;;;;;;;5.90;4.43;;;;;;;38.24;31.28;101585.13;5001431;28;20073;-52
2023/07/09 09:47:12;;;;;;;7.20;4.40;;;;;;;38.50;29.35;101582.16;4992373;28;20548;-50
2023/07/09 09:49:39;;;;;;;9.13;4.43;;;;;;;38.68;29.02;101583.44;5000111;28;20034;-49
2023/07/09 09:52:12;;;;;;;8.77;4.40;;;;;;;38.83;28.81;101572.19;4997793;28;20062;-50
2023/07/09 09:54:41;;;;;;;12.02;4.55;;;;;;;38.73;28.86;101568.69;4996939;28;20034;-50
2023/07/09 09:57:24;;;;;;;8.40;4.05;;;;;;;38.97;29.61;101568.75;4995060;28;20053;-53
2023/07/09 09:59:50;;;;;;;9.32;4.35;;;;;;;39.22;28.29;101562.13;4999927;28;20038;-50
2023/07/09 10:02:19;;;;;;;7.57;4.72;;;;;;;39.36;28.35;101565.06;4998309;28;20165;-50
2023/07/09 10:04:45;;;;;;;6.40;4.22;;;;;;;39.80;28.55;101565.94;4999680;28;20066;-52
2023/07/09 10:07:34;;;;;;;5.68;4.10;;;;;;;39.72;28.12;101575.75;4998064;28;20042;-51
2023/07/09 10:10:01;;;;;;;8.98;4.18;;;;;;;39.86;27.15;101573.91;4996099;28;20101;-51
2023/07/09 10:12:47;;;;;;;4.97;3.95;;;;;;;40.39;28.54;101574.88;4999466;28;20314;-51
2023/07/09 10:15:39;;;;;;;6.30;3.83;;;;;;;40.42;27.18;101574.25;5000177;28;20113;-51
2023/07/09 10:18:25;;;;;;;5.10;3.95;;;;;;;40.68;27.75;101581.06;4996724;28;20514;-52
2023/07/09 10:21:06;;;;;;;6.25;4.20;;;;;;;40.73;26.70;101588.50;5002105;28;20038;-52
2023/07/09 10:23:50;;;;;;;6.95;3.70;;;;;;;40.82;26.91;101599.78;5000687;28;20042;-51
2023/07/09 10:26:35;;;;;;;6.78;4.40;;;;;;;40.57;26.63;101595.47;5004004;28;20439;-53
2023/07/09 10:29:16;;;;;;;9.75;4.00;;;;;;;41.24;27.24;101595.16;4996188;28;20065;-51
2023/07/09 10:31:53;;;;;;;6.65;4.00;;;;;;;41.21;27.78;101596.59;5005681;28;20030;-51
2023/07/09 10:34:19;;;;;;;;;;;;;;;41.88;28.09;101598.09;4997405;28;20111;-51
2023/07/09 10:37:17;;;;;;;7.83;4.10;;;;;;;41.51;26.57;101596.34;5005600;28;20535;-50
2023/07/09 10:39:48;;;;;;;5.93;3.72;;;;;;;41.37;25.84;101597.16;5004018;28;20104;-50
2023/07/09 10:42:39;;;;;;;4.20;3.63;;;;;;;41.39;26.54;101594.91;4994784;28;20106;-53
2023/07/09 10:45:11;;;;;;;8.73;4.00;;;;;;;41.18;26.30;101593.59;4999265;28;20154;-52
2023/07/09 10:47:42;;;;;;;7.93;3.75;;;;;;;41.23;26.61;101593.50;5002805;28;20450;-51
2023/07/09 10:50:26;;;;;;;6.45;3.92;;;;;;;41.33;26.74;101584.97;4998937;28;20034;-50
2023/07/09 10:52:54;;;;;;;8.07;4.07;;;;;;;41.05;25.98;101579.34;4999845;28;20043;-50
2023/07/09 10:55:29;;;;;;;8.60;3.92;;;;;;;41.40;25.27;101577.03;4997769;28;20349;-50
2023/07/09 10:58:04;;;;;;;7.57;4.10;;;;;;;41.32;26.75;101571.34;5002177;28;20034;-50
2023/07/09 11:00:38;;;;;;;6.20;4.20;;;;;;;41.21;26.44;101568.72;5002555;28;20068;-52
2023/07/09 11:03:14;;;;;;;8.55;4.10;;;;;;;41.16;25.46;101570.78;5006701;28;20515;-52
2023/07/09 11:05:40;;;;;;;5.47;3.72;;;;;;;40.67;25.19;101579.44;5002276;28;20119;-51
2023/07/09 11:08:12;;;;;;;5.97;4.05;;;;;;;40.43;25.59;101573.97;4998008;28;20105;-50
2023/07/09 11:10:47;;;;;;;5.97;4.18;;;;;;;40.24;26.52;101582.31;5000691;28;20037;-51
2023/07/09 11:13:28;;;;;;;8.52;4.15;;;;;;;40.15;28.61;101584.09;4991028;28;20036;-53
2023/07/09 11:15:56;;;;;;;5.35;3.97;;;;;;;40.01;28.39;101592.38;4992081;28;20077;-49
2023/07/09 11:18:25;;;;;;;6.70;4.28;;;;;;;40.08;28.41;101592.00;4984673;28;20085;-50
2023/07/09 11:21:04;;;;;;;7.03;4.00;;;;;;;40.08;28.88;101594.78;4993294;28;20117;-50
2023/07/09 11:23:43;;;;;;;6.40;3.80;;;;;;;40.24;29.44;101603.72;4995295;28;20036;-50
2023/07/09 11:26:15;;;;;;;7.00;4.05;;;;;;;39.91;29.78;101593.31;4992085;28;20437;-48